Time;durP1;ratioP1;P1;durP2;ratioP2;P2;SDS_P1;SDS_P2;PMS_P1;PMS_P2;Temp;Humidity;BMP_temperature;BMP_pressure;BME280_temperature;BME280_humidity;BME280_pressure;Samples;Min_cycle;Max_cycle;Signal;HPM_P1;HPM_P2
2023/11/29 00:02:21;;;;;;;4.13;2.90;;;;;;;9.46;67.73;97059.84;4975809;28;20046;-76
2023/11/29 00:04:46;;;;;;;4.60;3.13;;;;;;;9.51;67.46;97070.63;4958372;28;20387;-76
2023/11/29 00:07:12;;;;;;;4.55;2.97;;;;;;;9.52;67.35;97073.06;4973988;28;20050;-75
2023/11/29 00:09:38;;;;;;;6.32;3.30;;;;;;;9.55;67.35;97067.56;4974459;28;20034;-74
2023/11/29 00:12:04;;;;;;;4.85;3.20;;;;;;;9.57;67.26;97057.00;4957997;28;20034;-75
2023/11/29 00:14:30;;;;;;;4.53;2.70;;;;;;;9.63;66.97;97071.19;4973760;28;20070;-76
2023/11/29 00:16:56;;;;;;;4.22;2.50;;;;;;;9.67;67.00;97056.88;4974411;28;20057;-76
2023/11/29 00:19:22;;;;;;;5.03;2.63;;;;;;;9.71;66.85;97060.81;4975208;28;20030;-75
2023/11/29 00:21:47;;;;;;;4.25;2.70;;;;;;;9.74;66.90;97057.91;4975209;28;20058;-75
2023/11/29 00:24:13;;;;;;;3.47;2.63;;;;;;;9.75;66.72;97065.56;4973907;28;20031;-77
2023/11/29 00:26:38;;;;;;;4.80;3.00;;;;;;;9.79;66.63;97076.50;4973974;28;20074;-76
2023/11/29 00:29:04;;;;;;;4.22;2.60;;;;;;;9.78;66.48;97070.47;4973757;28;20026;-76
2023/11/29 00:31:29;;;;;;;3.47;2.28;;;;;;;9.87;66.34;97087.00;4974011;28;20031;-75
2023/11/29 00:33:55;;;;;;;5.38;2.72;;;;;;;9.88;66.30;97079.97;4973762;28;20058;-74
2023/11/29 00:36:20;;;;;;;4.53;2.67;;;;;;;9.84;66.35;97079.47;4957970;28;20051;-76
2023/11/29 00:38:46;;;;;;;3.58;2.13;;;;;;;9.89;66.20;97087.66;4973482;28;20486;-74
2023/11/29 00:41:11;;;;;;;2.75;1.80;;;;;;;9.85;66.23;97081.13;4973862;28;20031;-75
2023/11/29 00:43:37;;;;;;;3.72;2.15;;;;;;;9.87;66.12;97084.38;4967568;28;20449;-76
2023/11/29 00:46:03;;;;;;;2.63;1.85;;;;;;;9.93;65.90;97091.59;4963274;28;20082;-75
2023/11/29 00:48:30;;;;;;;3.85;2.10;;;;;;;9.94;65.90;97095.00;4946238;28;20544;-76
2023/11/29 00:50:56;;;;;;;2.67;1.73;;;;;;;9.89;65.93;97074.63;4964247;28;20548;-76
2023/11/29 00:53:21;;;;;;;2.53;1.77;;;;;;;9.93;66.24;97069.91;4963155;28;20114;-76
2023/11/29 00:55:47;;;;;;;3.22;1.80;;;;;;;9.94;65.92;97079.38;4963907;28;20038;-75
2023/11/29 00:58:12;;;;;;;3.65;2.05;;;;;;;9.93;65.99;97091.59;4961334;28;20590;-74
2023/11/29 01:00:38;;;;;;;3.22;1.80;;;;;;;10.00;65.96;97091.78;4963601;28;20093;-76
2023/11/29 01:03:03;;;;;;;2.95;1.80;;;;;;;10.02;65.59;97081.22;4964396;28;20039;-76
2023/11/29 01:05:29;;;;;;;2.80;1.55;;;;;;;10.08;65.30;97085.81;4943234;28;20031;-74
2023/11/29 01:07:56;;;;;;;3.10;1.58;;;;;;;10.09;65.07;97071.81;4938052;29;20042;-75
2023/11/29 01:10:21;;;;;;;3.30;1.40;;;;;;;10.17;65.23;97084.03;4954146;29;20031;-75
2023/11/29 01:12:47;;;;;;;2.60;1.50;;;;;;;10.23;64.73;97096.47;4954538;29;20031;-75
2023/11/29 01:15:13;;;;;;;2.58;1.55;;;;;;;10.23;64.48;97099.91;4953874;29;20580;-75
2023/11/29 01:17:38;;;;;;;2.20;1.58;;;;;;;10.19;64.67;97089.94;4937985;29;20031;-76
2023/11/29 01:20:05;;;;;;;2.58;1.60;;;;;;;10.25;64.51;97097.16;4970092;28;20455;-75
2023/11/29 01:22:30;;;;;;;2.35;1.58;;;;;;;10.23;64.72;97106.91;4954191;29;20545;-75
2023/11/29 01:24:56;;;;;;;1.90;1.38;;;;;;;10.18;64.56;97099.53;4953508;29;20051;-75
2023/11/29 01:27:21;;;;;;;2.38;1.58;;;;;;;10.19;64.51;97119.44;4937703;29;20039;-75
2023/11/29 01:29:47;;;;;;;2.67;1.50;;;;;;;10.11;64.60;97114.19;4954922;29;20046;-75
2023/11/29 01:32:12;;;;;;;2.15;1.63;;;;;;;10.10;64.75;97122.97;4954007;29;20027;-75
2023/11/29 01:34:41;;;;;;;2.03;1.30;;;;;;;10.07;64.89;97118.06;4938160;28;20047;-75
2023/11/29 01:37:06;;;;;;;2.55;1.40;;;;;;;9.99;64.79;97121.44;4953792;29;20039;-74
2023/11/29 01:39:32;;;;;;;2.47;1.40;;;;;;;9.97;64.69;97125.97;4954065;28;20101;-76
2023/11/29 01:41:57;;;;;;;2.80;1.50;;;;;;;9.92;64.74;97129.03;4953452;29;20054;-75
2023/11/29 01:44:23;;;;;;;1.95;1.40;;;;;;;9.94;64.87;97136.72;4953656;28;20043;-75
2023/11/29 01:46:48;;;;;;;1.75;1.23;;;;;;;9.92;64.91;97144.69;4953538;29;20487;-75
2023/11/29 01:49:16;;;;;;;1.60;1.10;;;;;;;9.90;64.94;97143.22;4953747;29;20071;-75
2023/11/29 01:51:41;;;;;;;2.42;1.30;;;;;;;9.83;65.02;97145.59;4937308;29;20094;-75
2023/11/29 01:54:07;;;;;;;1.92;1.30;;;;;;;9.83;65.03;97155.19;4937460;29;20031;-74
2023/11/29 01:56:32;;;;;;;1.70;1.25;;;;;;;9.84;64.98;97168.09;4953328;29;20027;-75
2023/11/29 01:58:58;;;;;;;1.83;1.20;;;;;;;9.80;64.91;97171.94;4953020;29;20487;-74
2023/11/29 02:01:23;;;;;;;3.83;1.30;;;;;;;9.77;65.16;97178.31;4937680;28;20039;-74
2023/11/29 02:03:49;;;;;;;1.85;1.30;;;;;;;9.76;64.97;97186.25;4969450;28;20039;-75
2023/11/29 02:06:14;;;;;;;2.00;1.10;;;;;;;9.74;64.92;97194.22;4937243;29;20102;-74
2023/11/29 02:08:40;;;;;;;1.98;1.05;;;;;;;9.66;65.06;97185.50;4937653;29;20038;-75
2023/11/29 02:11:05;;;;;;;3.13;1.35;;;;;;;9.66;64.97;97190.72;4937607;28;20064;-75
2023/11/29 02:13:31;;;;;;;1.70;1.13;;;;;;;9.67;65.22;97198.38;4969309;28;20071;-74
2023/11/29 02:15:56;;;;;;;2.17;1.20;;;;;;;9.65;65.25;97208.16;4953108;29;20058;-73
2023/11/29 02:18:22;;;;;;;1.98;1.35;;;;;;;9.64;65.04;97197.88;4953485;29;20035;-75
2023/11/29 02:20:47;;;;;;;2.33;1.27;;;;;;;9.56;65.19;97199.41;4953126;29;20047;-74
2023/11/29 02:23:37;;;;;;;2.10;1.40;;;;;;;9.58;65.13;97220.13;4953124;29;20113;-75
2023/11/29 02:26:03;;;;;;;2.08;1.35;;;;;;;9.50;65.13;97204.41;4954184;29;20051;-75
2023/11/29 02:28:28;;;;;;;1.88;1.27;;;;;;;9.46;65.31;97208.31;4952982;29;20050;-75
2023/11/29 02:30:54;;;;;;;2.42;1.40;;;;;;;9.46;65.24;97222.13;4937432;29;20027;-75
2023/11/29 02:33:19;;;;;;;2.00;1.23;;;;;;;9.43;65.08;97227.63;4953391;29;20054;-74
2023/11/29 02:35:45;;;;;;;1.73;1.33;;;;;;;9.40;65.23;97233.13;4937057;29;20039;-75
2023/11/29 02:38:10;;;;;;;1.98;1.42;;;;;;;9.36;65.09;97248.25;4953342;28;20039;-75
2023/11/29 02:40:36;;;;;;;2.85;1.50;;;;;;;9.29;65.36;97238.53;4952691;29;20502;-75
2023/11/29 02:43:01;;;;;;;1.80;1.30;;;;;;;9.27;65.43;97249.09;4937252;29;20039;-74
2023/11/29 02:45:27;;;;;;;2.00;1.48;;;;;;;9.24;65.40;97255.41;4969197;28;20126;-75
2023/11/29 02:47:52;;;;;;;2.30;1.50;;;;;;;9.21;65.30;97260.91;4936717;29;20031;-74
2023/11/29 02:50:18;;;;;;;2.33;1.70;;;;;;;9.18;65.21;97263.00;4954081;29;20031;-75
2023/11/29 02:52:45;;;;;;;2.30;1.60;;;;;;;9.14;65.45;97264.22;4952826;29;20035;-75
2023/11/29 02:55:11;;;;;;;4.20;2.40;;;;;;;9.10;65.38;97257.69;4952849;29;20487;-74
2023/11/29 02:57:36;;;;;;;4.30;2.30;;;;;;;9.04;65.56;97256.47;4968620;28;20034;-75
2023/11/29 03:00:02;;;;;;;3.47;2.42;;;;;;;9.01;65.59;97267.16;4952615;29;20483;-74
2023/11/29 03:02:28;;;;;;;3.53;2.38;;;;;;;8.98;65.72;97267.44;4952845;29;20110;-74
2023/11/29 03:04:53;;;;;;;3.42;2.45;;;;;;;8.94;65.52;97273.91;4952746;29;20042;-74
2023/11/29 03:07:19;;;;;;;3.92;2.53;;;;;;;8.93;65.81;97278.28;4952650;29;20063;-75
2023/11/29 03:09:44;;;;;;;4.30;3.05;;;;;;;8.89;65.65;97284.75;4952763;29;20031;-76
2023/11/29 03:12:10;;;;;;;4.68;3.05;;;;;;;8.83;65.64;97274.91;4952969;28;20078;-75
2023/11/29 03:14:35;;;;;;;6.43;3.25;;;;;;;8.81;65.69;97275.06;4952749;29;20031;-75
2023/11/29 03:17:01;;;;;;;5.05;2.67;;;;;;;8.83;65.74;97285.31;4952832;29;20046;-73
2023/11/29 03:19:26;;;;;;;3.78;2.53;;;;;;;8.81;65.75;97301.06;4952606;29;20034;-75
2023/11/29 03:21:53;;;;;;;3.88;2.50;;;;;;;8.77;65.57;97306.69;4955170;28;20062;-75
2023/11/29 03:24:19;;;;;;;4.40;2.63;;;;;;;8.76;65.89;97299.84;4972030;28;20042;-75
2023/11/29 03:26:44;;;;;;;3.53;2.50;;;;;;;8.73;65.62;97305.31;4956020;29;20499;-75
2023/11/29 03:29:11;;;;;;;3.80;2.30;;;;;;;8.68;65.84;97311.78;4939904;29;20051;-75
2023/11/29 03:31:37;;;;;;;4.05;2.40;;;;;;;8.64;65.69;97307.81;4956547;29;20034;-75
2023/11/29 03:34:02;;;;;;;4.28;2.58;;;;;;;8.66;65.95;97318.88;4955624;29;20047;-75
2023/11/29 03:36:27;;;;;;;4.78;2.35;;;;;;;8.65;65.54;97329.44;4983220;28;20050;-75
2023/11/29 03:38:53;;;;;;;3.55;2.13;;;;;;;8.63;65.78;97323.56;4975192;28;20035;-75
2023/11/29 03:41:18;;;;;;;3.40;2.10;;;;;;;8.59;65.79;97311.81;4958922;28;20031;-75
2023/11/29 03:43:44;;;;;;;3.55;2.20;;;;;;;8.60;65.77;97316.88;4975501;28;20049;-74
2023/11/29 03:46:09;;;;;;;3.90;2.28;;;;;;;8.56;65.69;97318.09;4990434;28;20031;-76
2023/11/29 03:48:35;;;;;;;3.85;2.35;;;;;;;8.59;65.77;97323.03;4991259;28;20086;-75
2023/11/29 03:51:01;;;;;;;3.70;2.08;;;;;;;8.61;65.96;97343.69;4959524;28;20642;-75
2023/11/29 03:53:26;;;;;;;3.10;2.10;;;;;;;8.55;65.73;97339.84;4989482;28;20030;-74
2023/11/29 03:55:52;;;;;;;3.40;2.05;;;;;;;8.58;65.85;97346.56;4974842;28;20508;-75
2023/11/29 03:58:17;;;;;;;3.78;1.60;;;;;;;8.54;65.70;97351.25;4975840;28;20093;-75
2023/11/29 04:00:43;;;;;;;4.30;2.00;;;;;;;8.53;65.77;97357.38;4991148;28;20026;-76
2023/11/29 04:03:09;;;;;;;3.20;1.90;;;;;;;8.50;65.86;97350.66;4974780;28;20035;-76
2023/11/29 04:05:34;;;;;;;2.58;1.60;;;;;;;8.54;66.05;97350.41;4958480;28;20039;-74
2023/11/29 04:08:00;;;;;;;2.03;1.40;;;;;;;8.51;65.94;97356.72;4991095;28;20402;-75
2023/11/29 04:10:26;;;;;;;3.28;1.70;;;;;;;8.56;65.97;97364.09;4990775;28;20442;-76
2023/11/29 04:12:51;;;;;;;3.20;1.77;;;;;;;8.54;65.71;97369.44;4958564;28;20105;-75
2023/11/29 04:15:17;;;;;;;2.97;1.70;;;;;;;8.55;65.87;97365.06;4958537;28;20101;-74
2023/11/29 04:17:42;;;;;;;2.28;1.58;;;;;;;8.50;66.06;97363.66;4958719;28;20050;-75
2023/11/29 04:20:08;;;;;;;2.83;1.70;;;;;;;8.54;65.85;97363.41;4974268;28;20035;-76
2023/11/29 04:22:37;;;;;;;2.17;1.52;;;;;;;8.54;65.93;97372.03;4990449;28;20434;-75
2023/11/29 04:25:05;;;;;;;2.38;1.45;;;;;;;8.52;65.69;97371.34;4990266;28;20046;-75
2023/11/29 04:27:31;;;;;;;2.97;1.50;;;;;;;8.50;66.03;97373.25;4974404;28;20049;-75
2023/11/29 04:29:57;;;;;;;2.10;1.38;;;;;;;8.54;65.72;97379.84;4989928;28;20038;-75
2023/11/29 04:32:23;;;;;;;3.33;1.88;;;;;;;8.50;66.04;97371.47;4972209;28;20146;-76
2023/11/29 04:34:49;;;;;;;2.35;1.40;;;;;;;8.50;65.94;97371.47;4973320;28;20034;-76
2023/11/29 04:37:14;;;;;;;2.42;1.48;;;;;;;8.53;65.87;97391.19;4974839;28;20030;-74
2023/11/29 04:39:40;;;;;;;1.67;1.20;;;;;;;8.53;65.56;97393.00;4939096;28;20039;-75
2023/11/29 04:42:05;;;;;;;2.20;1.40;;;;;;;8.51;65.51;97398.31;4949468;28;20138;-75
2023/11/29 04:44:31;;;;;;;3.13;1.50;;;;;;;8.46;65.71;97395.28;4990002;28;20062;-78
2023/11/29 04:46:57;;;;;;;2.72;1.77;;;;;;;8.48;65.65;97407.22;4972928;28;20034;-78
2023/11/29 04:49:22;;;;;;;4.95;1.40;;;;;;;8.53;66.93;97411.19;4972993;28;20050;-77
2023/11/29 04:51:48;;;;;;;2.10;1.40;;;;;;;8.50;66.26;97423.50;4977676;28;20490;-77
2023/11/29 04:54:13;;;;;;;3.72;1.80;;;;;;;8.55;68.54;97419.66;4990748;28;20043;-77
2023/11/29 04:56:39;;;;;;;3.95;1.77;;;;;;;8.67;68.55;97431.59;4990025;28;20406;-78
2023/11/29 04:59:05;;;;;;;2.58;1.52;;;;;;;8.64;67.63;97424.88;4974849;28;20469;-76
2023/11/29 05:01:31;;;;;;;4.85;1.77;;;;;;;8.62;67.24;97431.19;4973776;28;20030;-77
2023/11/29 05:03:56;;;;;;;8.38;1.63;;;;;;;8.55;67.43;97422.28;4973890;28;20494;-78
2023/11/29 05:06:22;;;;;;;2.35;1.45;;;;;;;8.56;66.95;97431.72;4957613;28;20525;-78
2023/11/29 05:08:47;;;;;;;4.63;2.03;;;;;;;8.50;66.88;97413.09;4973767;28;20074;-79
2023/11/29 05:11:13;;;;;;;2.97;1.50;;;;;;;8.47;66.58;97413.34;4973782;28;20027;-77
2023/11/29 05:13:38;;;;;;;4.78;1.83;;;;;;;8.48;67.00;97416.81;4974082;28;20043;-79
2023/11/29 05:16:04;;;;;;;4.57;1.67;;;;;;;8.45;66.97;97417.88;4957271;28;20031;-77
2023/11/29 05:18:29;;;;;;;4.90;1.73;;;;;;;8.45;66.90;97419.69;4957079;28;20046;-79
2023/11/29 05:20:56;;;;;;;2.58;1.70;;;;;;;8.45;66.45;97427.47;4989422;28;20090;-76
2023/11/29 05:23:23;;;;;;;3.58;1.88;;;;;;;8.43;66.52;97434.53;4971614;28;20043;-76
2023/11/29 05:25:49;;;;;;;3.13;1.73;;;;;;;8.45;66.67;97432.69;4956513;28;20054;-76
2023/11/29 05:28:14;;;;;;;4.75;1.75;;;;;;;8.45;66.85;97428.28;4973677;28;20569;-76
2023/11/29 05:30:40;;;;;;;2.67;1.70;;;;;;;8.46;66.55;97437.75;4973359;28;20066;-75
2023/11/29 05:33:07;;;;;;;2.65;1.77;;;;;;;8.47;66.52;97444.56;4973257;28;20121;-74
2023/11/29 05:35:32;;;;;;;3.50;1.60;;;;;;;8.51;66.70;97442.53;4973327;28;20035;-75
2023/11/29 05:37:58;;;;;;;2.92;1.60;;;;;;;8.57;66.61;97454.16;4989323;28;20042;-75
2023/11/29 05:40:24;;;;;;;3.72;1.83;;;;;;;8.65;66.49;97457.75;4972823;28;20033;-75
2023/11/29 05:42:49;;;;;;;2.70;1.70;;;;;;;8.70;65.98;97459.94;4973120;28;20442;-75
2023/11/29 05:45:15;;;;;;;2.80;1.67;;;;;;;8.73;65.95;97461.44;4963946;28;20045;-74
2023/11/29 05:47:40;;;;;;;4.85;1.60;;;;;;;8.82;65.84;97465.81;4972239;28;20537;-76
2023/11/29 05:50:06;;;;;;;3.30;1.67;;;;;;;8.88;65.66;97466.06;4972004;28;20053;-73
2023/11/29 05:52:32;;;;;;;3.85;1.73;;;;;;;9.32;64.65;97464.81;4973472;28;20045;-73
2023/11/29 05:55:00;;;;;;;3.28;1.90;;;;;;;10.16;63.58;97463.94;4956874;28;20035;-74
2023/11/29 05:57:26;;;;;;;2.40;1.52;;;;;;;10.99;61.79;97463.81;4973047;28;20034;-74
2023/11/29 05:59:55;;;;;;;3.03;1.45;;;;;;;11.92;60.10;97465.06;4956629;28;20074;-74
2023/11/29 06:02:21;;;;;;;7.72;1.70;;;;;;;13.05;58.02;97469.91;4972697;28;20030;-74
2023/11/29 06:04:46;;;;;;;2.92;1.40;;;;;;;14.11;55.94;97474.16;4957072;28;20039;-73
2023/11/29 06:07:12;;;;;;;2.85;1.60;;;;;;;15.16;53.67;97478.16;4941274;28;20026;-75
2023/11/29 06:09:39;;;;;;;2.92;1.75;;;;;;;16.18;51.48;97476.00;4972635;28;20125;-74
2023/11/29 06:12:05;;;;;;;3.50;2.00;;;;;;;17.09;49.62;97486.09;4956881;28;20081;-74
2023/11/29 06:14:31;;;;;;;3.35;1.80;;;;;;;18.17;47.19;97481.38;4957006;28;20041;-75
2023/11/29 06:16:56;;;;;;;4.18;2.42;;;;;;;19.24;44.93;97480.84;4972526;28;20038;-74
2023/11/29 06:19:22;;;;;;;3.60;2.13;;;;;;;20.28;43.22;97492.50;4972719;28;20442;-74
2023/11/29 06:21:47;;;;;;;4.28;1.90;;;;;;;21.21;41.37;97498.38;4989728;28;20142;-74
2023/11/29 06:24:13;;;;;;;5.22;2.00;;;;;;;22.20;39.75;97501.97;4973862;28;20479;-74
2023/11/29 06:26:38;;;;;;;3.15;1.92;;;;;;;23.01;38.43;97512.41;4956594;28;20055;-75
2023/11/29 06:29:09;;;;;;;3.78;1.70;;;;;;;23.77;37.21;97525.97;4956694;28;20058;-74
2023/11/29 06:31:36;;;;;;;4.63;2.30;;;;;;;24.56;35.60;97528.22;4972819;28;20475;-75
2023/11/29 06:34:02;;;;;;;4.30;2.28;;;;;;;25.33;34.45;97531.50;4956696;28;20514;-73
2023/11/29 06:36:28;;;;;;;5.35;2.58;;;;;;;25.97;33.64;97541.88;4972472;28;20069;-74
2023/11/29 06:38:54;;;;;;;4.85;2.80;;;;;;;26.55;32.55;97541.53;4972759;28;20031;-74
2023/11/29 06:41:19;;;;;;;5.63;2.60;;;;;;;26.99;32.08;97543.38;4972282;28;20089;-74
2023/11/29 06:43:45;;;;;;;5.68;2.80;;;;;;;27.22;31.92;97537.72;4956566;28;20190;-73
2023/11/29 06:46:10;;;;;;;4.72;2.63;;;;;;;27.24;32.19;97530.22;4972583;28;20561;-74
2023/11/29 06:48:37;;;;;;;6.18;3.05;;;;;;;27.14;32.39;97540.06;4956550;28;20482;-74
2023/11/29 06:51:03;;;;;;;7.07;3.80;;;;;;;26.89;32.46;97538.75;4972648;28;20034;-75
2023/11/29 06:53:29;;;;;;;7.57;4.60;;;;;;;26.71;33.48;97537.22;4973234;28;20045;-74
2023/11/29 06:55:55;;;;;;;7.80;5.13;;;;;;;26.44;34.06;97535.28;4956733;28;20498;-75
2023/11/29 06:58:21;;;;;;;8.25;6.00;;;;;;;26.23;34.52;97525.38;4960413;28;20470;-74
2023/11/29 07:00:46;;;;;;;10.30;6.93;;;;;;;26.13;34.82;97539.41;4975879;28;20031;-74
2023/11/29 07:03:12;;;;;;;10.82;7.43;;;;;;;26.04;34.84;97543.56;4959784;28;20031;-73
2023/11/29 07:05:38;;;;;;;10.88;6.97;;;;;;;26.01;35.39;97542.19;4943854;28;20030;-73
2023/11/29 07:08:04;;;;;;;10.77;6.50;;;;;;;25.95;35.19;97538.63;4959659;28;20126;-74
2023/11/29 07:10:30;;;;;;;11.52;6.93;;;;;;;26.00;35.56;97557.41;4976000;28;20031;-73
2023/11/29 07:12:56;;;;;;;12.15;6.88;;;;;;;25.99;35.60;97563.00;4959493;28;20035;-75
2023/11/29 07:15:21;;;;;;;8.57;6.28;;;;;;;25.99;35.81;97568.34;4975621;28;20045;-73
2023/11/29 07:17:47;;;;;;;6.78;5.32;;;;;;;26.00;35.21;97568.13;4975884;28;20418;-74
2023/11/29 07:20:12;;;;;;;9.32;5.78;;;;;;;26.10;35.29;97567.44;4975735;28;20114;-73
2023/11/29 07:22:38;;;;;;;7.45;4.93;;;;;;;26.20;35.36;97568.66;4975600;28;20097;-76
2023/11/29 07:25:05;;;;;;;6.68;4.70;;;;;;;26.38;34.99;97573.72;4959579;28;20082;-75
2023/11/29 07:27:31;;;;;;;8.05;5.43;;;;;;;26.55;34.56;97568.28;4959417;28;20031;-74
2023/11/29 07:29:56;;;;;;;7.07;5.97;;;;;;;26.73;34.16;97575.25;4975146;28;20053;-73
2023/11/29 07:32:22;;;;;;;8.40;5.82;;;;;;;26.93;33.59;97580.03;4975124;28;20063;-74
2023/11/29 07:34:51;;;;;;;6.80;5.05;;;;;;;27.12;33.30;97577.81;4959402;28;20481;-73
2023/11/29 07:37:20;;;;;;;7.38;5.55;;;;;;;27.25;32.72;97584.63;4975348;28;20098;-75
2023/11/29 07:39:45;;;;;;;7.95;5.13;;;;;;;27.36;32.37;97581.00;4960093;28;20034;-73
2023/11/29 07:42:11;;;;;;;6.93;4.60;;;;;;;27.51;32.28;97582.22;4975035;28;20097;-74
2023/11/29 07:44:38;;;;;;;7.45;4.85;;;;;;;27.65;32.03;97583.41;4975373;28;20038;-74
2023/11/29 07:47:06;;;;;;;9.00;4.70;;;;;;;27.80;31.75;97580.84;4975580;28;20031;-74
2023/11/29 07:49:32;;;;;;;7.72;4.70;;;;;;;27.98;31.76;97579.63;4975561;28;20489;-76
2023/11/29 07:51:57;;;;;;;10.48;5.22;;;;;;;28.17;31.24;97586.47;4975133;28;20033;-74
2023/11/29 07:54:23;;;;;;;7.82;4.65;;;;;;;28.33;31.03;97590.84;4975191;28;20062;-73
2023/11/29 07:56:49;;;;;;;7.47;4.90;;;;;;;28.46;30.94;97584.19;4958823;28;20035;-75
2023/11/29 07:59:14;;;;;;;9.15;5.22;;;;;;;28.65;30.18;97582.69;4975256;28;20033;-75
2023/11/29 08:01:40;;;;;;;5.60;4.28;;;;;;;28.83;30.39;97577.94;4974953;28;20145;-76
2023/11/29 08:04:06;;;;;;;6.70;4.65;;;;;;;28.94;29.88;97574.22;4958787;28;20402;-75
2023/11/29 08:06:32;;;;;;;7.18;4.88;;;;;;;29.07;29.84;97574.78;4959068;28;20035;-75
2023/11/29 08:08:58;;;;;;;5.65;4.45;;;;;;;29.23;29.10;97584.50;4958526;28;20037;-75
2023/11/29 08:11:23;;;;;;;4.68;3.72;;;;;;;29.35;28.51;97585.06;4958930;28;20034;-75
2023/11/29 08:13:49;;;;;;;5.63;3.92;;;;;;;29.52;28.12;97600.13;4974956;28;20431;-74
2023/11/29 08:16:15;;;;;;;5.35;3.38;;;;;;;29.62;27.89;97594.75;4958652;28;20136;-74
2023/11/29 08:18:40;;;;;;;4.63;3.38;;;;;;;29.66;26.41;97598.50;4974708;28;20051;-74
2023/11/29 08:21:06;;;;;;;4.47;3.20;;;;;;;29.64;26.60;97597.97;4975032;28;20022;-76
2023/11/29 08:23:31;;;;;;;6.85;3.08;;;;;;;29.71;26.15;97595.00;4942632;28;20133;-75
2023/11/29 08:25:57;;;;;;;8.93;3.67;;;;;;;29.72;26.50;97602.00;4958528;28;20137;-74
2023/11/29 08:28:23;;;;;;;6.75;3.80;;;;;;;29.78;26.19;97601.75;4974723;28;20030;-74
2023/11/29 08:30:49;;;;;;;7.72;3.90;;;;;;;29.89;26.02;97617.91;4942805;28;20026;-76
2023/11/29 08:33:14;;;;;;;8.30;4.82;;;;;;;29.95;25.63;97616.81;4958755;28;20038;-75
2023/11/29 08:35:41;;;;;;;10.90;5.60;;;;;;;30.04;25.39;97611.69;4958484;28;20471;-80
2023/11/29 08:38:06;;;;;;;8.93;5.15;;;;;;;30.22;25.35;97621.09;4974483;28;20054;-75
2023/11/29 08:40:34;;;;;;;8.55;5.40;;;;;;;30.30;24.87;97617.84;4974271;28;20071;-76
2023/11/29 08:43:01;;;;;;;10.40;5.35;;;;;;;30.53;24.62;97621.06;4974288;28;20026;-74
2023/11/29 08:45:26;;;;;;;10.80;5.70;;;;;;;30.83;23.83;97639.78;4958354;28;20034;-74
2023/11/29 08:47:52;;;;;;;9.52;6.20;;;;;;;31.06;23.91;97645.66;4958035;28;20391;-74
2023/11/29 08:50:17;;;;;;;8.55;6.45;;;;;;;31.27;23.40;97632.84;4973696;28;20568;-78
2023/11/29 08:52:44;;;;;;;9.45;5.38;;;;;;;31.37;23.63;97635.50;4973944;28;20070;-76
2023/11/29 08:55:09;;;;;;;9.95;6.15;;;;;;;31.51;23.19;97638.34;4973492;28;20035;-75
2023/11/29 08:57:35;;;;;;;15.70;6.40;;;;;;;31.65;22.88;97649.34;4973531;28;20505;-75
2023/11/29 09:00:01;;;;;;;10.13;6.85;;;;;;;31.74;22.53;97639.56;4941412;28;20035;-76
2023/11/29 09:02:29;;;;;;;11.35;7.30;;;;;;;31.89;22.28;97640.53;4957397;28;20043;-76
2023/11/29 09:04:54;;;;;;;13.40;6.85;;;;;;;32.03;22.33;97638.78;4958119;28;20113;-74
2023/11/29 09:07:20;;;;;;;10.88;6.30;;;;;;;32.00;22.61;97619.66;4974786;28;20030;-74
2023/11/29 09:09:47;;;;;;;7.78;5.63;;;;;;;32.16;22.26;97626.53;4973327;28;20505;-75
2023/11/29 09:12:12;;;;;;;6.90;5.37;;;;;;;32.21;22.08;97620.28;4973505;28;20035;-78
2023/11/29 09:14:38;;;;;;;8.30;5.00;;;;;;;32.20;21.92;97621.41;4973297;28;20398;-77
2023/11/29 09:17:04;;;;;;;8.38;4.65;;;;;;;32.16;22.25;97607.66;4957373;28;20447;-74
2023/11/29 09:19:32;;;;;;;7.35;4.70;;;;;;;32.18;21.62;97618.97;4972901;28;20034;-75
2023/11/29 09:21:58;;;;;;;9.82;4.20;;;;;;;32.24;21.84;97617.81;4973379;28;20471;-74
2023/11/29 09:24:24;;;;;;;7.10;3.97;;;;;;;32.55;21.75;97609.41;4957507;28;20046;-74
2023/11/29 09:26:49;;;;;;;4.68;3.70;;;;;;;33.11;21.32;97613.28;4973139;28;20117;-74
2023/11/29 09:29:15;;;;;;;5.20;3.40;;;;;;;34.10;20.15;97621.53;4941458;28;20166;-73
2023/11/29 09:31:41;;;;;;;4.03;3.33;;;;;;;35.25;18.83;97614.44;4957362;28;20031;-73
2023/11/29 09:34:07;;;;;;;4.47;2.88;;;;;;;36.38;17.74;97627.16;4973135;28;20034;-76
2023/11/29 09:36:33;;;;;;;4.70;2.92;;;;;;;37.14;17.04;97626.09;4957064;28;20069;-76
2023/11/29 09:38:58;;;;;;;4.72;2.80;;;;;;;37.82;16.42;97631.06;4972706;28;20511;-79
2023/11/29 09:41:24;;;;;;;3.95;2.15;;;;;;;38.30;15.62;97640.09;4957243;28;20071;-75
2023/11/29 09:43:49;;;;;;;5.40;2.70;;;;;;;38.74;15.51;97629.81;4956821;28;20034;-72
2023/11/29 09:46:15;;;;;;;3.40;2.20;;;;;;;38.63;15.62;97637.56;4973314;28;20045;-75
2023/11/29 09:48:42;;;;;;;3.42;2.40;;;;;;;38.90;14.92;97641.78;4972837;28;20035;-75
2023/11/29 09:51:07;;;;;;;4.32;2.15;;;;;;;38.75;15.28;97639.59;4956609;28;20031;-75
2023/11/29 09:53:33;;;;;;;4.43;2.08;;;;;;;38.66;15.29;97649.75;4957470;28;20037;-74
2023/11/29 09:55:58;;;;;;;3.10;1.83;;;;;;;38.67;15.19;97643.19;4972732;28;20539;-74
2023/11/29 09:58:27;;;;;;;2.67;1.73;;;;;;;38.03;15.69;97635.84;4972519;28;20152;-73
2023/11/29 10:00:53;;;;;;;3.92;1.80;;;;;;;37.23;16.42;97645.19;4956803;28;20031;-74
2023/11/29 10:03:20;;;;;;;4.07;1.80;;;;;;;35.99;17.50;97643.09;4956328;28;20066;-76
2023/11/29 10:05:49;;;;;;;3.20;1.50;;;;;;;35.00;18.09;97652.91;4940847;28;20298;-75
2023/11/29 10:08:22;;;;;;;3.75;1.65;;;;;;;34.48;18.79;97643.09;4972348;28;20035;-75
2023/11/29 10:10:48;;;;;;;3.10;1.70;;;;;;;33.92;19.14;97642.16;4972711;28;20022;-74
2023/11/29 10:13:17;;;;;;;3.10;1.30;;;;;;;33.29;19.89;97643.34;4972023;28;20077;-76
2023/11/29 10:16:01;;;;;;;5.07;1.70;;;;;;;32.72;20.33;97645.97;4972207;28;20038;-74
2023/11/29 10:18:26;;;;;;;2.95;1.80;;;;;;;32.30;21.06;97642.09;4972354;28;20042;-73
2023/11/29 10:20:52;;;;;;;2.80;1.58;;;;;;;31.87;21.61;97634.63;4956736;28;20402;-75
2023/11/29 10:23:17;;;;;;;3.45;1.52;;;;;;;31.54;21.70;97632.44;4972074;28;20035;-73
2023/11/29 10:25:43;;;;;;;2.88;1.40;;;;;;;31.14;22.13;97626.19;4956279;28;20046;-74
2023/11/29 10:28:09;;;;;;;2.85;1.75;;;;;;;30.76;22.65;97639.28;4972374;28;20031;-74
2023/11/29 10:30:34;;;;;;;3.25;1.80;;;;;;;30.52;22.78;97630.19;4972099;28;20027;-74
2023/11/29 10:33:00;;;;;;;4.30;1.65;;;;;;;30.23;23.80;97630.78;4975927;28;20114;-75
2023/11/29 10:35:26;;;;;;;2.60;1.60;;;;;;;29.90;24.01;97633.78;4976386;28;20035;-74
2023/11/29 10:38:12;;;;;;;2.30;1.50;;;;;;;29.57;24.22;97635.06;4976120;28;20482;-75
2023/11/29 10:40:39;;;;;;;2.53;1.52;;;;;;;29.31;24.29;97632.34;4946268;28;20027;-76
2023/11/29 10:43:05;;;;;;;4.13;1.60;;;;;;;29.01;24.97;97633.84;4975977;28;20038;-76
2023/11/29 10:45:30;;;;;;;2.22;1.67;;;;;;;28.69;25.15;97634.81;4959924;28;20507;-75
2023/11/29 10:47:57;;;;;;;3.08;1.58;;;;;;;28.47;25.51;97628.78;4959718;28;20030;-74
2023/11/29 10:50:23;;;;;;;2.75;1.30;;;;;;;28.08;25.85;97624.50;4959689;28;20118;-74
2023/11/29 10:52:49;;;;;;;2.72;1.50;;;;;;;27.92;26.25;97628.91;4975736;28;20034;-74
2023/11/29 10:55:14;;;;;;;3.22;1.60;;;;;;;27.69;26.70;97624.72;4959837;28;20085;-75
2023/11/29 10:58:01;;;;;;;2.55;1.38;;;;;;;27.42;26.88;97622.88;4976809;28;20027;-74
2023/11/29 11:00:28;;;;;;;2.23;1.27;;;;;;;27.23;27.19;97622.38;4976037;28;20117;-74
2023/11/29 11:02:54;;;;;;;2.25;1.33;;;;;;;27.01;27.65;97621.59;4975666;28;20026;-74
2023/11/29 11:05:22;;;;;;;1.80;1.20;;;;;;;26.81;27.87;97630.22;4976008;28;20041;-75
2023/11/29 11:07:48;;;;;;;2.70;1.15;;;;;;;26.57;28.29;97629.59;4959127;28;20066;-74
2023/11/29 11:10:26;;;;;;;2.40;1.23;;;;;;;26.27;28.58;97620.91;4959407;28;20113;-74
2023/11/29 11:12:53;;;;;;;3.50;1.40;;;;;;;26.15;28.71;97621.00;4959237;28;20109;-75
2023/11/29 11:15:24;;;;;;;3.53;1.45;;;;;;;25.90;29.26;97607.22;4959479;28;20041;-74
2023/11/29 11:18:02;;;;;;;2.08;1.27;;;;;;;25.82;28.99;97613.78;4975627;28;20129;-74
2023/11/29 11:20:50;;;;;;;3.00;1.40;;;;;;;25.70;29.59;97619.22;4975227;28;20031;-74
2023/11/29 11:23:23;;;;;;;2.03;1.40;;;;;;;25.45;29.16;97617.72;4975742;28;20050;-74
2023/11/29 11:25:52;;;;;;;4.72;1.40;;;;;;;25.25;29.82;97620.00;4959170;28;20047;-74
2023/11/29 11:28:31;;;;;;;2.65;1.42;;;;;;;25.05;29.89;97613.25;4975274;28;20493;-74
2023/11/29 11:31:01;;;;;;;3.00;1.40;;;;;;;24.92;30.13;97614.34;4958943;28;20402;-74
2023/11/29 11:33:53;;;;;;;3.35;1.30;;;;;;;24.70;30.66;97619.50;4975294;28;20066;-73